sensor_id;sensor_type;location;lat;lon;timestamp;temperature;humidity
4207;DHT22;2117;47.972;7.830;2024-02-04T00:00:30;6.70;99.90
4207;DHT22;2117;47.972;7.830;2024-02-04T00:02:56;6.70;99.90
4207;DHT22;2117;47.972;7.830;2024-02-04T00:05:21;6.60;99.90
4207;DHT22;2117;47.972;7.830;2024-02-04T00:07:47;6.60;99.90
4207;DHT22;2117;47.972;7.830;2024-02-04T00:10:12;6.60;99.90
4207;DHT22;2117;47.972;7.830;2024-02-04T00:12:40;6.60;99.90
4207;DHT22;2117;47.972;7.830;2024-02-04T00:15:06;6.70;99.90
4207;DHT22;2117;47.972;7.830;2024-02-04T00:17:32;6.70;99.90
4207;DHT22;2117;47.972;7.830;2024-02-04T00:20:02;6.60;99.90
4207;DHT22;2117;47.972;7.830;2024-02-04T00:22:28;6.60;99.90
4207;DHT22;2117;47.972;7.830;2024-02-04T00:24:54;6.60;99.90
4207;DHT22;2117;47.972;7.830;2024-02-04T00:27:19;6.60;99.90
4207;DHT22;2117;47.972;7.830;2024-02-04T00:29:45;6.50;99.90
4207;DHT22;2117;47.972;7.830;2024-02-04T00:32:11;6.50;99.90
4207;DHT22;2117;47.972;7.830;2024-02-04T00:34:36;6.50;99.90
4207;DHT22;2117;47.972;7.830;2024-02-04T00:37:02;6.60;99.90
4207;DHT22;2117;47.972;7.830;2024-02-04T00:39:28;6.60;99.90
4207;DHT22;2117;47.972;7.830;2024-02-04T00:41:53;6.60;99.90
4207;DHT22;2117;47.972;7.830;2024-02-04T00:44:19;6.50;99.90
4207;DHT22;2117;47.972;7.830;2024-02-04T00:46:44;6.60;99.90
4207;DHT22;2117;47.972;7.830;2024-02-04T00:49:10;6.60;99.90
4207;DHT22;2117;47.972;7.830;2024-02-04T00:51:36;6.50;99.90
4207;DHT22;2117;47.972;7.830;2024-02-04T00:54:01;6.50;99.90
4207;DHT22;2117;47.972;7.830;2024-02-04T00:56:27;6.50;99.90
4207;DHT22;2117;47.972;7.830;2024-02-04T00:58:52;6.50;99.90
4207;DHT22;2117;47.972;7.830;2024-02-04T01:01:18;6.50;99.90
4207;DHT22;2117;47.972;7.830;2024-02-04T01:03:45;6.50;99.90
4207;DHT22;2117;47.972;7.830;2024-02-04T01:06:10;6.60;99.90
4207;DHT22;2117;47.972;7.830;2024-02-04T01:08:36;6.50;99.90
4207;DHT22;2117;47.972;7.830;2024-02-04T01:11:05;6.60;99.90
4207;DHT22;2117;47.972;7.830;2024-02-04T01:13:31;6.60;99.90
4207;DHT22;2117;47.972;7.830;2024-02-04T01:15:57;6.60;99.90
4207;DHT22;2117;47.972;7.830;2024-02-04T01:18:23;6.60;99.90
4207;DHT22;2117;47.972;7.830;2024-02-04T01:20:49;6.60;99.90
4207;DHT22;2117;47.972;7.830;2024-02-04T01:23:15;6.60;99.90
4207;DHT22;2117;47.972;7.830;2024-02-04T01:25:43;6.70;99.90
4207;DHT22;2117;47.972;7.830;2024-02-04T01:28:08;6.70;99.90
4207;DHT22;2117;47.972;7.830;2024-02-04T01:30:35;6.70;99.90
4207;DHT22;2117;47.972;7.830;2024-02-04T01:33:00;6.70;99.90
4207;DHT22;2117;47.972;7.830;2024-02-04T01:35:26;6.70;99.90
4207;DHT22;2117;47.972;7.830;2024-02-04T01:37:51;6.70;99.90
4207;DHT22;2117;47.972;7.830;2024-02-04T01:40:17;6.80;99.90
4207;DHT22;2117;47.972;7.830;2024-02-04T01:42:44;6.80;99.90
4207;DHT22;2117;47.972;7.830;2024-02-04T01:45:10;6.80;99.90
4207;DHT22;2117;47.972;7.830;2024-02-04T01:47:35;6.80;99.90
4207;DHT22;2117;47.972;7.830;2024-02-04T01:50:02;6.80;99.90
4207;DHT22;2117;47.972;7.830;2024-02-04T01:52:30;6.80;99.90
4207;DHT22;2117;47.972;7.830;2024-02-04T01:54:56;6.80;99.90
4207;DHT22;2117;47.972;7.830;2024-02-04T01:57:23;6.80;99.90
4207;DHT22;2117;47.972;7.830;2024-02-04T01:59:49;6.70;99.90
4207;DHT22;2117;47.972;7.830;2024-02-04T02:02:17;6.70;99.90
4207;DHT22;2117;47.972;7.830;2024-02-04T02:04:43;6.70;99.90
4207;DHT22;2117;47.972;7.830;2024-02-04T02:07:09;6.70;99.90
4207;DHT22;2117;47.972;7.830;2024-02-04T02:09:35;6.60;99.90
4207;DHT22;2117;47.972;7.830;2024-02-04T02:12:09;6.60;99.90
4207;DHT22;2117;47.972;7.830;2024-02-04T02:14:37;6.60;99.90
4207;DHT22;2117;47.972;7.830;2024-02-04T02:17:10;6.60;99.90
4207;DHT22;2117;47.972;7.830;2024-02-04T02:19:57;6.60;99.90
4207;DHT22;2117;47.972;7.830;2024-02-04T02:22:30;6.70;99.90
4207;DHT22;2117;47.972;7.830;2024-02-04T02:24:57;6.70;99.90
4207;DHT22;2117;47.972;7.830;2024-02-04T02:27:24;6.70;99.90
4207;DHT22;2117;47.972;7.830;2024-02-04T02:29:50;6.60;99.90
4207;DHT22;2117;47.972;7.830;2024-02-04T02:32:15;6.60;99.90
4207;DHT22;2117;47.972;7.830;2024-02-04T02:34:41;6.60;99.90
4207;DHT22;2117;47.972;7.830;2024-02-04T02:39:45;6.60;99.90
4207;DHT22;2117;47.972;7.830;2024-02-04T02:42:12;6.50;99.90
4207;DHT22;2117;47.972;7.830;2024-02-04T02:44:38;6.50;99.90
4207;DHT22;2117;47.972;7.830;2024-02-04T02:47:05;6.50;99.90
4207;DHT22;2117;47.972;7.830;2024-02-04T02:49:31;6.40;99.90
4207;DHT22;2117;47.972;7.830;2024-02-04T02:51:57;6.40;99.90
4207;DHT22;2117;47.972;7.830;2024-02-04T02:54:23;6.40;99.90
4207;DHT22;2117;47.972;7.830;2024-02-04T02:56:48;6.40;99.90
4207;DHT22;2117;47.972;7.830;2024-02-04T02:59:14;6.40;99.90
4207;DHT22;2117;47.972;7.830;2024-02-04T03:01:40;6.40;99.90
4207;DHT22;2117;47.972;7.830;2024-02-04T03:04:05;6.40;99.90
4207;DHT22;2117;47.972;7.830;2024-02-04T03:06:31;6.40;99.90
4207;DHT22;2117;47.972;7.830;2024-02-04T03:08:57;6.40;99.90
4207;DHT22;2117;47.972;7.830;2024-02-04T03:11:22;6.40;99.90
4207;DHT22;2117;47.972;7.830;2024-02-04T03:13:48;6.50;99.90
4207;DHT22;2117;47.972;7.830;2024-02-04T03:16:13;6.50;99.90
4207;DHT22;2117;47.972;7.830;2024-02-04T03:18:43;6.40;99.90
4207;DHT22;2117;47.972;7.830;2024-02-04T03:21:15;6.50;99.90
4207;DHT22;2117;47.972;7.830;2024-02-04T03:23:42;6.50;99.90
4207;DHT22;2117;47.972;7.830;2024-02-04T03:26:09;6.50;99.90
4207;DHT22;2117;47.972;7.830;2024-02-04T03:28:35;6.50;99.90
4207;DHT22;2117;47.972;7.830;2024-02-04T03:31:01;6.50;99.90
4207;DHT22;2117;47.972;7.830;2024-02-04T03:33:26;6.50;99.90
4207;DHT22;2117;47.972;7.830;2024-02-04T03:35:52;6.50;99.90
4207;DHT22;2117;47.972;7.830;2024-02-04T03:38:17;6.60;99.90
4207;DHT22;2117;47.972;7.830;2024-02-04T03:40:43;6.60;99.90
4207;DHT22;2117;47.972;7.830;2024-02-04T03:43:09;6.60;99.90
4207;DHT22;2117;47.972;7.830;2024-02-04T03:45:37;6.60;99.90
4207;DHT22;2117;47.972;7.830;2024-02-04T03:48:03;6.60;99.90
4207;DHT22;2117;47.972;7.830;2024-02-04T03:50:29;6.60;99.90
4207;DHT22;2117;47.972;7.830;2024-02-04T03:52:55;6.60;99.90
4207;DHT22;2117;47.972;7.830;2024-02-04T03:55:20;6.60;99.90
4207;DHT22;2117;47.972;7.830;2024-02-04T03:57:47;6.60;99.90
4207;DHT22;2117;47.972;7.830;2024-02-04T04:00:13;6.60;99.90
4207;DHT22;2117;47.972;7.830;2024-02-04T04:02:40;6.60;99.90
4207;DHT22;2117;47.972;7.830;2024-02-04T04:05:06;6.70;99.90
4207;DHT22;2117;47.972;7.830;2024-02-04T04:07:32;6.70;99.90
4207;DHT22;2117;47.972;7.830;2024-02-04T04:09:57;6.70;99.90
4207;DHT22;2117;47.972;7.830;2024-02-04T04:12:23;6.70;99.90
4207;DHT22;2117;47.972;7.830;2024-02-04T04:14:48;6.70;99.90
4207;DHT22;2117;47.972;7.830;2024-02-04T04:17:14;6.70;99.90
4207;DHT22;2117;47.972;7.830;2024-02-04T04:19:39;6.70;99.90
4207;DHT22;2117;47.972;7.830;2024-02-04T04:22:05;6.70;99.90
4207;DHT22;2117;47.972;7.830;2024-02-04T04:24:30;6.70;99.90
4207;DHT22;2117;47.972;7.830;2024-02-04T04:26:56;6.70;99.90
4207;DHT22;2117;47.972;7.830;2024-02-04T04:29:21;6.70;99.90
4207;DHT22;2117;47.972;7.830;2024-02-04T04:31:47;6.70;99.90
4207;DHT22;2117;47.972;7.830;2024-02-04T04:34:13;6.70;99.90
4207;DHT22;2117;47.972;7.830;2024-02-04T04:36:39;6.70;99.90
4207;DHT22;2117;47.972;7.830;2024-02-04T04:39:04;6.70;99.90
4207;DHT22;2117;47.972;7.830;2024-02-04T04:41:30;6.70;99.90
4207;DHT22;2117;47.972;7.830;2024-02-04T04:43:56;6.70;99.90
4207;DHT22;2117;47.972;7.830;2024-02-04T04:46:21;6.60;99.90
4207;DHT22;2117;47.972;7.830;2024-02-04T04:48:47;6.70;99.90
4207;DHT22;2117;47.972;7.830;2024-02-04T04:51:13;6.70;99.90
4207;DHT22;2117;47.972;7.830;2024-02-04T04:53:38;6.70;99.90
4207;DHT22;2117;47.972;7.830;2024-02-04T04:56:04;6.70;99.90
4207;DHT22;2117;47.972;7.830;2024-02-04T04:58:30;6.70;99.90
4207;DHT22;2117;47.972;7.830;2024-02-04T05:00:56;6.70;99.90
4207;DHT22;2117;47.972;7.830;2024-02-04T05:03:21;6.70;99.90
4207;DHT22;2117;47.972;7.830;2024-02-04T05:05:47;6.70;99.90
4207;DHT22;2117;47.972;7.830;2024-02-04T05:08:14;6.80;99.90
4207;DHT22;2117;47.972;7.830;2024-02-04T05:10:40;6.80;99.90
4207;DHT22;2117;47.972;7.830;2024-02-04T05:13:07;6.80;99.90
4207;DHT22;2117;47.972;7.830;2024-02-04T05:15:32;6.80;99.90
4207;DHT22;2117;47.972;7.830;2024-02-04T05:18:00;6.80;99.90
4207;DHT22;2117;47.972;7.830;2024-02-04T05:20:26;6.80;99.90
4207;DHT22;2117;47.972;7.830;2024-02-04T05:22:51;6.70;99.90
4207;DHT22;2117;47.972;7.830;2024-02-04T05:25:17;6.70;99.90
4207;DHT22;2117;47.972;7.830;2024-02-04T05:27:42;6.70;99.90
4207;DHT22;2117;47.972;7.830;2024-02-04T05:30:08;6.70;99.90
4207;DHT22;2117;47.972;7.830;2024-02-04T05:32:34;6.70;99.90
4207;DHT22;2117;47.972;7.830;2024-02-04T05:34:59;6.70;99.90
4207;DHT22;2117;47.972;7.830;2024-02-04T05:37:25;6.60;99.90
4207;DHT22;2117;47.972;7.830;2024-02-04T05:39:50;6.60;99.90
4207;DHT22;2117;47.972;7.830;2024-02-04T05:42:17;6.60;99.90
4207;DHT22;2117;47.972;7.830;2024-02-04T05:44:43;6.50;99.90
4207;DHT22;2117;47.972;7.830;2024-02-04T05:47:08;6.40;99.90
4207;DHT22;2117;47.972;7.830;2024-02-04T05:49:34;6.40;99.90
4207;DHT22;2117;47.972;7.830;2024-02-04T05:52:00;6.40;99.90
4207;DHT22;2117;47.972;7.830;2024-02-04T05:54:25;6.40;99.90
4207;DHT22;2117;47.972;7.830;2024-02-04T05:56:51;6.40;99.90
4207;DHT22;2117;47.972;7.830;2024-02-04T05:59:16;6.40;99.90
4207;DHT22;2117;47.972;7.830;2024-02-04T06:01:43;6.30;99.90
4207;DHT22;2117;47.972;7.830;2024-02-04T06:04:10;6.30;99.90
4207;DHT22;2117;47.972;7.830;2024-02-04T06:06:35;6.30;99.90
4207;DHT22;2117;47.972;7.830;2024-02-04T06:09:01;6.20;99.90
4207;DHT22;2117;47.972;7.830;2024-02-04T06:11:27;6.20;99.90
4207;DHT22;2117;47.972;7.830;2024-02-04T06:13:52;6.10;99.90
4207;DHT22;2117;47.972;7.830;2024-02-04T06:16:19;6.10;99.90
4207;DHT22;2117;47.972;7.830;2024-02-04T06:18:45;6.10;99.90
4207;DHT22;2117;47.972;7.830;2024-02-04T06:21:10;6.00;99.90
4207;DHT22;2117;47.972;7.830;2024-02-04T06:23:38;6.00;99.90
4207;DHT22;2117;47.972;7.830;2024-02-04T06:26:04;6.00;99.90
4207;DHT22;2117;47.972;7.830;2024-02-04T06:28:30;6.00;99.90
4207;DHT22;2117;47.972;7.830;2024-02-04T06:30:55;5.90;99.90
4207;DHT22;2117;47.972;7.830;2024-02-04T06:33:21;5.90;99.90
4207;DHT22;2117;47.972;7.830;2024-02-04T06:35:48;5.80;99.90
4207;DHT22;2117;47.972;7.830;2024-02-04T06:38:14;5.80;99.90
4207;DHT22;2117;47.972;7.830;2024-02-04T06:40:39;5.70;99.90
4207;DHT22;2117;47.972;7.830;2024-02-04T06:43:05;5.70;99.90
4207;DHT22;2117;47.972;7.830;2024-02-04T06:45:30;5.60;99.90
4207;DHT22;2117;47.972;7.830;2024-02-04T06:47:56;5.60;99.90
4207;DHT22;2117;47.972;7.830;2024-02-04T06:50:21;5.60;99.90
4207;DHT22;2117;47.972;7.830;2024-02-04T06:52:47;5.50;99.90
4207;DHT22;2117;47.972;7.830;2024-02-04T06:55:12;5.50;99.90
4207;DHT22;2117;47.972;7.830;2024-02-04T06:57:38;5.50;99.90
4207;DHT22;2117;47.972;7.830;2024-02-04T07:00:05;5.50;99.90
4207;DHT22;2117;47.972;7.830;2024-02-04T07:02:33;5.50;99.90
4207;DHT22;2117;47.972;7.830;2024-02-04T07:04:59;5.50;99.90
4207;DHT22;2117;47.972;7.830;2024-02-04T07:07:25;5.50;99.90
4207;DHT22;2117;47.972;7.830;2024-02-04T07:09:50;5.60;99.90
4207;DHT22;2117;47.972;7.830;2024-02-04T07:12:16;5.50;99.90
4207;DHT22;2117;47.972;7.830;2024-02-04T07:14:41;5.50;99.90
4207;DHT22;2117;47.972;7.830;2024-02-04T07:17:07;5.50;99.90
4207;DHT22;2117;47.972;7.830;2024-02-04T07:19:33;5.60;99.90
4207;DHT22;2117;47.972;7.830;2024-02-04T07:21:58;5.60;99.90
4207;DHT22;2117;47.972;7.830;2024-02-04T07:24:24;5.70;99.90
4207;DHT22;2117;47.972;7.830;2024-02-04T07:26:49;5.70;99.90
4207;DHT22;2117;47.972;7.830;2024-02-04T07:29:15;5.70;99.90
4207;DHT22;2117;47.972;7.830;2024-02-04T07:31:41;5.80;99.90
4207;DHT22;2117;47.972;7.830;2024-02-04T07:34:07;5.80;99.90
4207;DHT22;2117;47.972;7.830;2024-02-04T07:36:33;5.90;99.90
4207;DHT22;2117;47.972;7.830;2024-02-04T07:38:58;5.90;99.90
4207;DHT22;2117;47.972;7.830;2024-02-04T07:41:25;5.80;99.90
4207;DHT22;2117;47.972;7.830;2024-02-04T07:43:51;5.90;99.90
4207;DHT22;2117;47.972;7.830;2024-02-04T07:46:16;5.90;99.90
4207;DHT22;2117;47.972;7.830;2024-02-04T07:48:42;6.00;99.90
4207;DHT22;2117;47.972;7.830;2024-02-04T07:51:08;6.00;99.90
4207;DHT22;2117;47.972;7.830;2024-02-04T07:53:33;6.00;99.90
4207;DHT22;2117;47.972;7.830;2024-02-04T07:56:00;6.00;99.90
4207;DHT22;2117;47.972;7.830;2024-02-04T07:58:25;6.00;99.90
4207;DHT22;2117;47.972;7.830;2024-02-04T08:00:52;6.10;99.90
4207;DHT22;2117;47.972;7.830;2024-02-04T08:03:18;6.10;99.90
4207;DHT22;2117;47.972;7.830;2024-02-04T08:05:43;6.10;99.90
4207;DHT22;2117;47.972;7.830;2024-02-04T08:08:09;6.10;99.90
4207;DHT22;2117;47.972;7.830;2024-02-04T08:10:34;6.10;99.90
4207;DHT22;2117;47.972;7.830;2024-02-04T08:13:00;6.10;99.90
4207;DHT22;2117;47.972;7.830;2024-02-04T08:15:25;6.10;99.90
4207;DHT22;2117;47.972;7.830;2024-02-04T08:17:51;6.10;99.90
4207;DHT22;2117;47.972;7.830;2024-02-04T08:20:18;6.20;99.90
4207;DHT22;2117;47.972;7.830;2024-02-04T08:22:43;6.20;99.90
4207;DHT22;2117;47.972;7.830;2024-02-04T08:25:09;6.30;99.90
4207;DHT22;2117;47.972;7.830;2024-02-04T08:27:37;6.30;99.90
4207;DHT22;2117;47.972;7.830;2024-02-04T08:30:03;6.40;99.90
4207;DHT22;2117;47.972;7.830;2024-02-04T08:32:28;6.50;99.90
4207;DHT22;2117;47.972;7.830;2024-02-04T08:34:54;6.50;99.90
4207;DHT22;2117;47.972;7.830;2024-02-04T08:37:19;6.60;99.90
4207;DHT22;2117;47.972;7.830;2024-02-04T08:39:45;6.60;99.90
4207;DHT22;2117;47.972;7.830;2024-02-04T08:42:11;6.70;99.90
4207;DHT22;2117;47.972;7.830;2024-02-04T08:44:36;6.80;99.90
4207;DHT22;2117;47.972;7.830;2024-02-04T08:47:02;6.90;99.90
4207;DHT22;2117;47.972;7.830;2024-02-04T08:49:29;6.90;99.90
4207;DHT22;2117;47.972;7.830;2024-02-04T08:51:54;7.00;99.90
4207;DHT22;2117;47.972;7.830;2024-02-04T08:54:20;7.10;99.90
4207;DHT22;2117;47.972;7.830;2024-02-04T08:56:46;7.20;99.90
4207;DHT22;2117;47.972;7.830;2024-02-04T08:59:11;7.20;99.90
4207;DHT22;2117;47.972;7.830;2024-02-04T09:01:37;7.30;99.90
4207;DHT22;2117;47.972;7.830;2024-02-04T09:04:02;7.30;99.90
4207;DHT22;2117;47.972;7.830;2024-02-04T09:06:28;7.40;99.90
4207;DHT22;2117;47.972;7.830;2024-02-04T09:08:53;7.50;99.90
4207;DHT22;2117;47.972;7.830;2024-02-04T09:11:19;7.60;99.90
4207;DHT22;2117;47.972;7.830;2024-02-04T09:13:46;7.60;99.90
4207;DHT22;2117;47.972;7.830;2024-02-04T09:16:11;7.70;99.90
4207;DHT22;2117;47.972;7.830;2024-02-04T09:18:37;7.80;99.90
4207;DHT22;2117;47.972;7.830;2024-02-04T09:21:03;7.80;99.90
4207;DHT22;2117;47.972;7.830;2024-02-04T09:23:28;7.90;99.90
4207;DHT22;2117;47.972;7.830;2024-02-04T09:25:54;7.90;99.90
4207;DHT22;2117;47.972;7.830;2024-02-04T09:28:20;8.00;99.90
4207;DHT22;2117;47.972;7.830;2024-02-04T09:30:45;8.10;99.90
4207;DHT22;2117;47.972;7.830;2024-02-04T09:33:13;8.10;99.90
4207;DHT22;2117;47.972;7.830;2024-02-04T09:35:39;8.20;99.90
4207;DHT22;2117;47.972;7.830;2024-02-04T09:38:04;8.30;99.90
4207;DHT22;2117;47.972;7.830;2024-02-04T09:40:30;8.30;99.90
4207;DHT22;2117;47.972;7.830;2024-02-04T09:42:57;8.40;99.90
4207;DHT22;2117;47.972;7.830;2024-02-04T09:45:23;8.50;99.90
4207;DHT22;2117;47.972;7.830;2024-02-04T09:47:50;8.50;99.90
4207;DHT22;2117;47.972;7.830;2024-02-04T09:50:19;8.60;99.90
4207;DHT22;2117;47.972;7.830;2024-02-04T09:52:50;8.60;99.90
4207;DHT22;2117;47.972;7.830;2024-02-04T09:55:20;8.60;99.90
4207;DHT22;2117;47.972;7.830;2024-02-04T09:57:48;8.70;99.90
4207;DHT22;2117;47.972;7.830;2024-02-04T10:00:14;8.70;99.90
4207;DHT22;2117;47.972;7.830;2024-02-04T10:02:43;8.80;99.90
4207;DHT22;2117;47.972;7.830;2024-02-04T10:05:09;8.90;99.90
4207;DHT22;2117;47.972;7.830;2024-02-04T10:07:36;9.00;99.90
4207;DHT22;2117;47.972;7.830;2024-02-04T10:10:01;9.10;99.90
4207;DHT22;2117;47.972;7.830;2024-02-04T10:12:27;9.50;99.90
4207;DHT22;2117;47.972;7.830;2024-02-04T10:14:53;10.10;99.90
4207;DHT22;2117;47.972;7.830;2024-02-04T10:17:18;10.40;99.90
4207;DHT22;2117;47.972;7.830;2024-02-04T10:19:47;10.20;99.90
4207;DHT22;2117;47.972;7.830;2024-02-04T10:22:13;9.90;99.90
4207;DHT22;2117;47.972;7.830;2024-02-04T10:24:39;9.70;99.90
4207;DHT22;2117;47.972;7.830;2024-02-04T10:27:05;9.60;99.90
4207;DHT22;2117;47.972;7.830;2024-02-04T10:29:31;9.50;99.90
4207;DHT22;2117;47.972;7.830;2024-02-04T10:31:57;9.40;99.90
4207;DHT22;2117;47.972;7.830;2024-02-04T10:34:31;9.40;99.90
4207;DHT22;2117;47.972;7.830;2024-02-04T10:36:57;9.30;99.90
4207;DHT22;2117;47.972;7.830;2024-02-04T10:39:22;9.20;99.90
4207;DHT22;2117;47.972;7.830;2024-02-04T10:41:52;9.20;99.90
4207;DHT22;2117;47.972;7.830;2024-02-04T10:44:21;9.20;99.90
4207;DHT22;2117;47.972;7.830;2024-02-04T10:46:47;9.20;99.90
4207;DHT22;2117;47.972;7.830;2024-02-04T10:49:15;9.30;99.90
4207;DHT22;2117;47.972;7.830;2024-02-04T10:51:41;9.30;99.90
4207;DHT22;2117;47.972;7.830;2024-02-04T10:54:08;9.30;99.90
4207;DHT22;2117;47.972;7.830;2024-02-04T10:56:36;9.30;99.90
4207;DHT22;2117;47.972;7.830;2024-02-04T10:59:03;9.40;99.90
4207;DHT22;2117;47.972;7.830;2024-02-04T11:01:29;9.30;99.90
4207;DHT22;2117;47.972;7.830;2024-02-04T11:03:55;9.40;99.90
4207;DHT22;2117;47.972;7.830;2024-02-04T11:06:22;9.50;99.90
4207;DHT22;2117;47.972;7.830;2024-02-04T11:08:49;9.50;99.90
4207;DHT22;2117;47.972;7.830;2024-02-04T11:11:15;9.60;99.90
4207;DHT22;2117;47.972;7.830;2024-02-04T11:13:43;9.70;99.90
4207;DHT22;2117;47.972;7.830;2024-02-04T11:19:21;9.80;99.90
4207;DHT22;2117;47.972;7.830;2024-02-04T11:27:12;10.10;99.90
4207;DHT22;2117;47.972;7.830;2024-02-04T11:29:39;10.20;99.90
4207;DHT22;2117;47.972;7.830;2024-02-04T11:32:05;10.30;99.90
4207;DHT22;2117;47.972;7.830;2024-02-04T11:34:32;10.30;99.90
4207;DHT22;2117;47.972;7.830;2024-02-04T11:36:58;10.50;99.90
4207;DHT22;2117;47.972;7.830;2024-02-04T11:39:24;10.60;99.90
4207;DHT22;2117;47.972;7.830;2024-02-04T11:41:51;10.60;99.90
4207;DHT22;2117;47.972;7.830;2024-02-04T11:44:23;10.70;99.90
4207;DHT22;2117;47.972;7.830;2024-02-04T11:46:50;10.70;99.90
4207;DHT22;2117;47.972;7.830;2024-02-04T11:49:19;10.70;99.90
4207;DHT22;2117;47.972;7.830;2024-02-04T11:51:53;10.90;99.90
4207;DHT22;2117;47.972;7.830;2024-02-04T11:54:20;10.90;99.90
4207;DHT22;2117;47.972;7.830;2024-02-04T11:56:49;11.00;99.90
4207;DHT22;2117;47.972;7.830;2024-02-04T11:59:19;11.00;99.90
4207;DHT22;2117;47.972;7.830;2024-02-04T12:01:47;11.00;99.90
4207;DHT22;2117;47.972;7.830;2024-02-04T12:04:13;11.20;99.90
4207;DHT22;2117;47.972;7.830;2024-02-04T12:06:40;11.30;99.90
4207;DHT22;2117;47.972;7.830;2024-02-04T12:09:10;11.40;99.90
4207;DHT22;2117;47.972;7.830;2024-02-04T12:11:37;11.50;99.90
4207;DHT22;2117;47.972;7.830;2024-02-04T12:14:07;11.50;99.90
4207;DHT22;2117;47.972;7.830;2024-02-04T12:16:33;11.60;99.90
4207;DHT22;2117;47.972;7.830;2024-02-04T12:19:02;11.50;99.90
4207;DHT22;2117;47.972;7.830;2024-02-04T12:21:31;11.60;99.90
4207;DHT22;2117;47.972;7.830;2024-02-04T12:23:58;11.60;99.90
4207;DHT22;2117;47.972;7.830;2024-02-04T12:26:24;11.90;99.90
4207;DHT22;2117;47.972;7.830;2024-02-04T12:28:50;11.80;99.90
4207;DHT22;2117;47.972;7.830;2024-02-04T12:31:17;11.80;99.90
4207;DHT22;2117;47.972;7.830;2024-02-04T12:33:53;11.80;99.90
4207;DHT22;2117;47.972;7.830;2024-02-04T12:36:30;11.90;99.90
4207;DHT22;2117;47.972;7.830;2024-02-04T12:38:57;12.10;99.90
4207;DHT22;2117;47.972;7.830;2024-02-04T12:41:24;12.20;99.90
4207;DHT22;2117;47.972;7.830;2024-02-04T12:43:54;12.30;99.90
4207;DHT22;2117;47.972;7.830;2024-02-04T12:46:21;12.40;99.90
4207;DHT22;2117;47.972;7.830;2024-02-04T12:48:54;12.50;99.90
4207;DHT22;2117;47.972;7.830;2024-02-04T12:51:30;12.40;99.90
4207;DHT22;2117;47.972;7.830;2024-02-04T12:54:10;12.30;99.90
4207;DHT22;2117;47.972;7.830;2024-02-04T12:56:50;12.30;99.90
4207;DHT22;2117;47.972;7.830;2024-02-04T12:59:32;12.30;99.90
4207;DHT22;2117;47.972;7.830;2024-02-04T13:02:04;12.20;99.90
4207;DHT22;2117;47.972;7.830;2024-02-04T13:04:37;12.20;99.90
4207;DHT22;2117;47.972;7.830;2024-02-04T13:07:07;12.10;99.90
4207;DHT22;2117;47.972;7.830;2024-02-04T13:09:35;12.10;99.90
4207;DHT22;2117;47.972;7.830;2024-02-04T13:12:05;12.10;99.90
4207;DHT22;2117;47.972;7.830;2024-02-04T13:14:31;12.20;99.90
4207;DHT22;2117;47.972;7.830;2024-02-04T13:16:57;12.20;99.90
4207;DHT22;2117;47.972;7.830;2024-02-04T13:19:23;12.10;99.90
4207;DHT22;2117;47.972;7.830;2024-02-04T13:21:48;12.10;99.90
4207;DHT22;2117;47.972;7.830;2024-02-04T13:24:14;12.10;99.90
4207;DHT22;2117;47.972;7.830;2024-02-04T13:26:40;12.00;99.90
4207;DHT22;2117;47.972;7.830;2024-02-04T13:29:05;12.00;99.90
4207;DHT22;2117;47.972;7.830;2024-02-04T13:31:31;12.00;99.90
4207;DHT22;2117;47.972;7.830;2024-02-04T13:33:56;12.00;99.90
4207;DHT22;2117;47.972;7.830;2024-02-04T13:36:23;12.00;99.90
4207;DHT22;2117;47.972;7.830;2024-02-04T13:38:48;12.00;99.90
4207;DHT22;2117;47.972;7.830;2024-02-04T13:41:14;12.00;99.90
4207;DHT22;2117;47.972;7.830;2024-02-04T13:43:40;12.10;99.90
4207;DHT22;2117;47.972;7.830;2024-02-04T13:46:05;12.00;99.90
4207;DHT22;2117;47.972;7.830;2024-02-04T13:48:31;12.00;99.90
4207;DHT22;2117;47.972;7.830;2024-02-04T13:50:56;12.10;99.90
4207;DHT22;2117;47.972;7.830;2024-02-04T13:53:22;12.10;99.90
4207;DHT22;2117;47.972;7.830;2024-02-04T13:55:49;12.10;99.90
4207;DHT22;2117;47.972;7.830;2024-02-04T13:58:14;12.10;99.90
4207;DHT22;2117;47.972;7.830;2024-02-04T14:00:40;12.00;99.90
4207;DHT22;2117;47.972;7.830;2024-02-04T14:03:06;11.90;99.90
4207;DHT22;2117;47.972;7.830;2024-02-04T14:05:32;11.90;99.90
4207;DHT22;2117;47.972;7.830;2024-02-04T14:07:58;11.90;99.90
4207;DHT22;2117;47.972;7.830;2024-02-04T14:10:24;12.00;99.90
4207;DHT22;2117;47.972;7.830;2024-02-04T14:12:49;11.90;99.90
4207;DHT22;2117;47.972;7.830;2024-02-04T14:15:15;11.90;99.90
4207;DHT22;2117;47.972;7.830;2024-02-04T14:17:42;11.80;99.90
4207;DHT22;2117;47.972;7.830;2024-02-04T14:20:08;11.80;99.90
4207;DHT22;2117;47.972;7.830;2024-02-04T14:22:34;11.80;99.90
4207;DHT22;2117;47.972;7.830;2024-02-04T14:25:00;11.70;99.90
4207;DHT22;2117;47.972;7.830;2024-02-04T14:27:26;11.80;99.90
4207;DHT22;2117;47.972;7.830;2024-02-04T14:29:51;12.40;99.90
4207;DHT22;2117;47.972;7.830;2024-02-04T14:32:17;12.90;99.90
4207;DHT22;2117;47.972;7.830;2024-02-04T14:34:44;13.20;99.90
4207;DHT22;2117;47.972;7.830;2024-02-04T14:37:09;13.40;99.90
4207;DHT22;2117;47.972;7.830;2024-02-04T14:39:36;13.10;99.90
4207;DHT22;2117;47.972;7.830;2024-02-04T14:42:01;12.90;99.90
4207;DHT22;2117;47.972;7.830;2024-02-04T14:44:27;12.70;99.90
4207;DHT22;2117;47.972;7.830;2024-02-04T14:46:52;12.60;99.90
4207;DHT22;2117;47.972;7.830;2024-02-04T14:49:18;13.00;99.90
4207;DHT22;2117;47.972;7.830;2024-02-04T14:51:43;13.30;99.90
4207;DHT22;2117;47.972;7.830;2024-02-04T14:54:09;13.30;99.90
4207;DHT22;2117;47.972;7.830;2024-02-04T14:56:39;13.00;99.90
4207;DHT22;2117;47.972;7.830;2024-02-04T14:59:05;12.80;99.90
4207;DHT22;2117;47.972;7.830;2024-02-04T15:01:31;12.40;99.90
4207;DHT22;2117;47.972;7.830;2024-02-04T15:03:57;12.20;99.90
4207;DHT22;2117;47.972;7.830;2024-02-04T15:06:22;11.80;99.90
4207;DHT22;2117;47.972;7.830;2024-02-04T15:08:48;11.70;99.90
4207;DHT22;2117;47.972;7.830;2024-02-04T15:11:13;11.50;99.90
4207;DHT22;2117;47.972;7.830;2024-02-04T15:13:39;11.40;99.90
4207;DHT22;2117;47.972;7.830;2024-02-04T15:16:06;11.30;99.90
4207;DHT22;2117;47.972;7.830;2024-02-04T15:18:32;11.30;99.90
4207;DHT22;2117;47.972;7.830;2024-02-04T15:20:58;11.20;99.90
4207;DHT22;2117;47.972;7.830;2024-02-04T15:23:24;11.20;99.90
4207;DHT22;2117;47.972;7.830;2024-02-04T15:25:51;11.10;99.90
4207;DHT22;2117;47.972;7.830;2024-02-04T15:28:18;11.00;99.90
4207;DHT22;2117;47.972;7.830;2024-02-04T15:30:44;11.00;99.90
4207;DHT22;2117;47.972;7.830;2024-02-04T15:33:11;10.90;99.90
4207;DHT22;2117;47.972;7.830;2024-02-04T15:35:37;10.80;99.90
4207;DHT22;2117;47.972;7.830;2024-02-04T15:38:03;10.80;99.90
4207;DHT22;2117;47.972;7.830;2024-02-04T15:40:28;10.70;99.90
4207;DHT22;2117;47.972;7.830;2024-02-04T15:42:54;10.70;99.90
4207;DHT22;2117;47.972;7.830;2024-02-04T15:45:20;10.60;99.90
4207;DHT22;2117;47.972;7.830;2024-02-04T15:47:50;10.60;99.90
4207;DHT22;2117;47.972;7.830;2024-02-04T15:50:20;10.60;99.90
4207;DHT22;2117;47.972;7.830;2024-02-04T15:52:47;10.50;99.90
4207;DHT22;2117;47.972;7.830;2024-02-04T15:55:14;10.40;99.90
4207;DHT22;2117;47.972;7.830;2024-02-04T15:57:49;10.20;99.90
4207;DHT22;2117;47.972;7.830;2024-02-04T16:00:16;10.20;99.90
4207;DHT22;2117;47.972;7.830;2024-02-04T16:02:51;10.00;99.90
4207;DHT22;2117;47.972;7.830;2024-02-04T16:05:17;10.00;99.90
4207;DHT22;2117;47.972;7.830;2024-02-04T16:07:44;9.90;99.90
4207;DHT22;2117;47.972;7.830;2024-02-04T16:10:15;9.90;99.90
4207;DHT22;2117;47.972;7.830;2024-02-04T16:15:19;9.80;99.90
4207;DHT22;2117;47.972;7.830;2024-02-04T16:17:48;9.70;99.90
4207;DHT22;2117;47.972;7.830;2024-02-04T16:20:14;9.60;99.90